sensor_id;sensor_type;location;lat;lon;timestamp;pressure;altitude;pressure_sealevel;temperature;humidity
32873;BME280;19224;52.462;16.898;2023-04-24T00:00:26;99236.38;;;15.38;100.00
32873;BME280;19224;52.462;16.898;2023-04-24T00:02:57;99240.56;;;15.42;100.00
32873;BME280;19224;52.462;16.898;2023-04-24T00:05:28;99242.65;;;15.44;100.00
32873;BME280;19224;52.462;16.898;2023-04-24T00:07:59;99243.78;;;15.47;100.00
32873;BME280;19224;52.462;16.898;2023-04-24T00:10:30;99240.34;;;15.45;100.00
32873;BME280;19224;52.462;16.898;2023-04-24T00:13:00;99237.11;;;15.51;100.00
32873;BME280;19224;52.462;16.898;2023-04-24T00:15:30;99235.27;;;15.57;100.00
32873;BME280;19224;52.462;16.898;2023-04-24T00:18:01;99235.86;;;15.55;100.00
32873;BME280;19224;52.462;16.898;2023-04-24T00:20:31;99230.83;;;15.56;100.00
32873;BME280;19224;52.462;16.898;2023-04-24T00:23:02;99226.25;;;15.51;100.00
32873;BME280;19224;52.462;16.898;2023-04-24T00:25:33;99232.78;;;15.54;100.00
32873;BME280;19224;52.462;16.898;2023-04-24T00:28:03;99232.66;;;15.55;100.00
32873;BME280;19224;52.462;16.898;2023-04-24T00:30:34;99229.07;;;15.55;100.00
32873;BME280;19224;52.462;16.898;2023-04-24T00:33:04;99224.16;;;15.54;100.00
32873;BME280;19224;52.462;16.898;2023-04-24T00:35:35;99226.77;;;15.50;100.00
32873;BME280;19224;52.462;16.898;2023-04-24T00:38:05;99222.45;;;15.42;100.00
32873;BME280;19224;52.462;16.898;2023-04-24T00:40:36;99223.80;;;15.48;100.00
32873;BME280;19224;52.462;16.898;2023-04-24T00:43:07;99220.83;;;15.51;100.00
32873;BME280;19224;52.462;16.898;2023-04-24T00:45:37;99217.27;;;15.50;100.00
32873;BME280;19224;52.462;16.898;2023-04-24T00:48:08;99206.63;;;15.53;100.00
32873;BME280;19224;52.462;16.898;2023-04-24T00:50:39;99207.98;;;15.53;100.00
32873;BME280;19224;52.462;16.898;2023-04-24T00:53:09;99207.25;;;15.51;100.00
32873;BME280;19224;52.462;16.898;2023-04-24T00:55:40;99208.23;;;15.55;100.00
32873;BME280;19224;52.462;16.898;2023-04-24T00:58:10;99214.14;;;15.55;100.00
32873;BME280;19224;52.462;16.898;2023-04-24T01:00:41;99218.47;;;15.52;100.00
32873;BME280;19224;52.462;16.898;2023-04-24T01:03:12;99211.44;;;15.49;100.00
32873;BME280;19224;52.462;16.898;2023-04-24T01:05:43;99216.02;;;15.49;100.00
32873;BME280;19224;52.462;16.898;2023-04-24T01:08:14;99211.95;;;15.43;100.00
32873;BME280;19224;52.462;16.898;2023-04-24T01:10:45;99209.86;;;15.47;100.00
32873;BME280;19224;52.462;16.898;2023-04-24T01:13:16;99208.61;;;15.51;100.00
32873;BME280;19224;52.462;16.898;2023-04-24T01:15:48;99202.56;;;15.53;100.00
32873;BME280;19224;52.462;16.898;2023-04-24T01:18:18;99205.05;;;15.56;100.00
32873;BME280;19224;52.462;16.898;2023-04-24T01:20:53;99206.52;;;15.54;100.00
32873;BME280;19224;52.462;16.898;2023-04-24T01:23:24;99193.57;;;15.52;100.00
32873;BME280;19224;52.462;16.898;2023-04-24T01:25:55;99195.30;;;15.53;100.00
32873;BME280;19224;52.462;16.898;2023-04-24T01:28:26;99194.04;;;15.57;100.00
32873;BME280;19224;52.462;16.898;2023-04-24T01:30:56;99191.08;;;15.55;100.00
32873;BME280;19224;52.462;16.898;2023-04-24T01:33:27;99182.95;;;15.49;100.00
32873;BME280;19224;52.462;16.898;2023-04-24T01:35:58;99176.31;;;15.42;100.00
32873;BME280;19224;52.462;16.898;2023-04-24T01:38:29;99175.08;;;15.41;100.00
32873;BME280;19224;52.462;16.898;2023-04-24T01:40:59;99174.07;;;15.47;100.00
32873;BME280;19224;52.462;16.898;2023-04-24T01:43:30;99171.25;;;15.49;100.00
32873;BME280;19224;52.462;16.898;2023-04-24T01:46:00;99176.16;;;15.49;100.00
32873;BME280;19224;52.462;16.898;2023-04-24T01:48:33;99173.59;;;15.48;100.00
32873;BME280;19224;52.462;16.898;2023-04-24T01:51:06;99172.63;;;15.38;100.00
32873;BME280;19224;52.462;16.898;2023-04-24T01:53:37;99170.65;;;15.34;100.00
32873;BME280;19224;52.462;16.898;2023-04-24T01:56:08;99176.58;;;15.39;100.00
32873;BME280;19224;52.462;16.898;2023-04-24T01:58:39;99173.25;;;15.36;100.00
32873;BME280;19224;52.462;16.898;2023-04-24T02:01:10;99171.75;;;15.32;100.00
32873;BME280;19224;52.462;16.898;2023-04-24T02:03:46;99172.99;;;15.33;100.00
32873;BME280;19224;52.462;16.898;2023-04-24T02:06:17;99173.61;;;15.04;100.00
32873;BME280;19224;52.462;16.898;2023-04-24T02:08:47;99171.00;;;15.08;100.00
32873;BME280;19224;52.462;16.898;2023-04-24T02:11:19;99172.35;;;15.19;100.00
32873;BME280;19224;52.462;16.898;2023-04-24T02:13:59;99162.02;;;15.18;100.00
32873;BME280;19224;52.462;16.898;2023-04-24T02:16:29;99162.13;;;15.17;100.00
32873;BME280;19224;52.462;16.898;2023-04-24T02:19:01;99160.03;;;15.20;100.00
32873;BME280;19224;52.462;16.898;2023-04-24T02:21:32;99157.70;;;15.16;100.00
32873;BME280;19224;52.462;16.898;2023-04-24T02:24:04;99163.12;;;15.16;100.00
32873;BME280;19224;52.462;16.898;2023-04-24T02:26:34;99153.16;;;15.11;100.00
32873;BME280;19224;52.462;16.898;2023-04-24T02:29:05;99145.76;;;15.02;100.00
32873;BME280;19224;52.462;16.898;2023-04-24T02:31:35;99142.67;;;15.01;100.00
32873;BME280;19224;52.462;16.898;2023-04-24T02:34:07;99134.28;;;15.04;100.00
32873;BME280;19224;52.462;16.898;2023-04-24T02:36:38;99135.75;;;15.08;100.00
32873;BME280;19224;52.462;16.898;2023-04-24T02:39:08;99126.03;;;15.11;100.00
32873;BME280;19224;52.462;16.898;2023-04-24T02:41:43;99122.08;;;15.09;100.00
32873;BME280;19224;52.462;16.898;2023-04-24T02:44:17;99120.61;;;15.11;100.00
32873;BME280;19224;52.462;16.898;2023-04-24T02:46:46;99119.00;;;15.03;100.00
32873;BME280;19224;52.462;16.898;2023-04-24T02:49:16;99123.91;;;15.09;100.00
32873;BME280;19224;52.462;16.898;2023-04-24T02:51:48;99126.40;;;15.12;100.00
32873;BME280;19224;52.462;16.898;2023-04-24T02:54:18;99124.17;;;15.06;100.00
32873;BME280;19224;52.462;16.898;2023-04-24T02:56:51;99116.03;;;15.06;100.00
32873;BME280;19224;52.462;16.898;2023-04-24T02:59:22;99115.69;;;14.83;100.00
32873;BME280;19224;52.462;16.898;2023-04-24T03:01:52;99117.14;;;14.92;100.00
32873;BME280;19224;52.462;16.898;2023-04-24T03:04:22;99116.55;;;15.00;100.00
32873;BME280;19224;52.462;16.898;2023-04-24T03:06:53;99122.56;;;15.03;100.00
32873;BME280;19224;52.462;16.898;2023-04-24T03:09:27;99114.20;;;15.01;100.00
32873;BME280;19224;52.462;16.898;2023-04-24T03:11:59;99109.99;;;15.02;100.00
32873;BME280;19224;52.462;16.898;2023-04-24T03:14:29;99107.80;;;15.02;100.00
32873;BME280;19224;52.462;16.898;2023-04-24T03:17:00;99104.72;;;15.01;100.00
32873;BME280;19224;52.462;16.898;2023-04-24T03:19:30;99094.11;;;14.76;100.00
32873;BME280;19224;52.462;16.898;2023-04-24T03:22:03;99093.01;;;14.51;100.00
32873;BME280;19224;52.462;16.898;2023-04-24T03:24:33;99092.17;;;14.56;100.00
32873;BME280;19224;52.462;16.898;2023-04-24T03:27:03;99088.95;;;14.62;100.00
32873;BME280;19224;52.462;16.898;2023-04-24T03:29:34;99081.33;;;14.67;100.00
32873;BME280;19224;52.462;16.898;2023-04-24T03:32:04;99087.96;;;14.74;100.00
32873;BME280;19224;52.462;16.898;2023-04-24T03:34:34;99087.84;;;14.81;100.00
32873;BME280;19224;52.462;16.898;2023-04-24T03:37:05;99081.33;;;14.78;100.00
32873;BME280;19224;52.462;16.898;2023-04-24T03:39:35;99078.98;;;14.79;100.00
32873;BME280;19224;52.462;16.898;2023-04-24T03:42:05;99075.77;;;14.74;100.00
32873;BME280;19224;52.462;16.898;2023-04-24T03:44:37;99072.43;;;14.76;100.00
32873;BME280;19224;52.462;16.898;2023-04-24T03:47:07;99062.48;;;14.60;100.00
32873;BME280;19224;52.462;16.898;2023-04-24T03:49:38;99060.61;;;14.55;100.00
32873;BME280;19224;52.462;16.898;2023-04-24T03:52:08;99054.09;;;14.52;100.00
32873;BME280;19224;52.462;16.898;2023-04-24T03:54:38;99048.42;;;14.55;100.00
32873;BME280;19224;52.462;16.898;2023-04-24T03:57:09;99045.96;;;14.41;100.00
32873;BME280;19224;52.462;16.898;2023-04-24T03:59:39;99041.90;;;14.46;100.00
32873;BME280;19224;52.462;16.898;2023-04-24T04:02:09;99042.78;;;14.42;100.00
32873;BME280;19224;52.462;16.898;2023-04-24T04:04:40;99053.10;;;14.42;100.00
32873;BME280;19224;52.462;16.898;2023-04-24T04:07:10;99062.36;;;14.45;100.00
32873;BME280;19224;52.462;16.898;2023-04-24T04:09:41;99057.67;;;14.47;100.00
32873;BME280;19224;52.462;16.898;2023-04-24T04:12:12;99061.86;;;14.51;100.00
32873;BME280;19224;52.462;16.898;2023-04-24T04:14:42;99075.30;;;14.52;100.00
32873;BME280;19224;52.462;16.898;2023-04-24T04:17:12;99073.68;;;14.55;100.00
32873;BME280;19224;52.462;16.898;2023-04-24T04:19:42;99071.23;;;14.58;100.00
32873;BME280;19224;52.462;16.898;2023-04-24T04:22:12;99069.98;;;14.62;100.00
32873;BME280;19224;52.462;16.898;2023-04-24T04:24:43;99073.05;;;14.68;100.00
32873;BME280;19224;52.462;16.898;2023-04-24T04:27:15;99072.80;;;14.66;100.00
32873;BME280;19224;52.462;16.898;2023-04-24T04:29:46;99073.20;;;14.78;100.00
32873;BME280;19224;52.462;16.898;2023-04-24T04:32:16;99067.26;;;14.84;100.00
32873;BME280;19224;52.462;16.898;2023-04-24T04:34:47;99061.22;;;14.75;100.00
32873;BME280;19224;52.462;16.898;2023-04-24T04:37:18;99059.38;;;14.81;100.00
32873;BME280;19224;52.462;16.898;2023-04-24T04:39:48;99054.59;;;14.73;100.00
32873;BME280;19224;52.462;16.898;2023-04-24T04:42:19;99055.06;;;14.78;100.00
32873;BME280;19224;52.462;16.898;2023-04-24T04:44:49;99049.75;;;14.77;100.00
32873;BME280;19224;52.462;16.898;2023-04-24T04:47:21;99054.70;;;14.77;100.00
32873;BME280;19224;52.462;16.898;2023-04-24T04:49:52;99052.86;;;14.78;100.00
32873;BME280;19224;52.462;16.898;2023-04-24T04:52:22;99047.56;;;14.71;100.00
32873;BME280;19224;52.462;16.898;2023-04-24T04:54:54;99048.66;;;14.79;100.00
32873;BME280;19224;52.462;16.898;2023-04-24T04:57:25;99058.50;;;14.80;100.00
32873;BME280;19224;52.462;16.898;2023-04-24T04:59:55;99054.80;;;14.87;100.00
32873;BME280;19224;52.462;16.898;2023-04-24T05:02:25;99050.62;;;14.88;100.00
32873;BME280;19224;52.462;16.898;2023-04-24T05:04:55;99042.11;;;14.93;100.00
32873;BME280;19224;52.462;16.898;2023-04-24T05:07:26;99043.84;;;14.88;100.00
32873;BME280;19224;52.462;16.898;2023-04-24T05:09:56;99041.02;;;14.90;100.00
32873;BME280;19224;52.462;16.898;2023-04-24T05:12:26;99042.38;;;14.90;100.00
32873;BME280;19224;52.462;16.898;2023-04-24T05:14:57;99051.95;;;14.99;100.00
32873;BME280;19224;52.462;16.898;2023-04-24T05:17:27;99042.19;;;15.08;100.00
32873;BME280;19224;52.462;16.898;2023-04-24T05:19:57;99043.52;;;15.19;100.00
32873;BME280;19224;52.462;16.898;2023-04-24T05:22:27;99047.95;;;15.20;100.00
32873;BME280;19224;52.462;16.898;2023-04-24T05:24:58;99050.06;;;15.22;100.00
32873;BME280;19224;52.462;16.898;2023-04-24T05:27:28;99048.18;;;15.28;100.00
32873;BME280;19224;52.462;16.898;2023-04-24T05:29:59;99053.50;;;15.24;100.00
32873;BME280;19224;52.462;16.898;2023-04-24T05:32:29;99050.16;;;15.26;100.00
32873;BME280;19224;52.462;16.898;2023-04-24T05:34:59;99053.38;;;15.31;100.00
32873;BME280;19224;52.462;16.898;2023-04-24T05:37:30;99046.82;;;15.28;100.00
32873;BME280;19224;52.462;16.898;2023-04-24T05:40:00;99047.95;;;15.20;100.00
32873;BME280;19224;52.462;16.898;2023-04-24T05:42:31;99047.35;;;15.22;100.00
32873;BME280;19224;52.462;16.898;2023-04-24T05:45:01;99054.96;;;15.28;100.00
32873;BME280;19224;52.462;16.898;2023-04-24T05:47:32;99055.95;;;15.38;100.00
32873;BME280;19224;52.462;16.898;2023-04-24T05:50:02;99062.60;;;15.45;100.00
32873;BME280;19224;52.462;16.898;2023-04-24T05:52:33;99060.44;;;15.54;100.00
32873;BME280;19224;52.462;16.898;2023-04-24T05:55:04;99054.14;;;15.59;100.00
32873;BME280;19224;52.462;16.898;2023-04-24T05:57:34;99049.42;;;15.66;100.00
32873;BME280;19224;52.462;16.898;2023-04-24T06:00:06;99049.12;;;15.75;100.00
32873;BME280;19224;52.462;16.898;2023-04-24T06:02:37;99050.84;;;15.76;100.00
32873;BME280;19224;52.462;16.898;2023-04-24T06:05:08;99047.83;;;15.90;100.00
32873;BME280;19224;52.462;16.898;2023-04-24T06:07:38;99041.73;;;15.97;100.00
32873;BME280;19224;52.462;16.898;2023-04-24T06:10:10;99046.61;;;16.03;100.00
32873;BME280;19224;52.462;16.898;2023-04-24T06:12:40;99050.29;;;16.08;100.00
32873;BME280;19224;52.462;16.898;2023-04-24T06:15:11;99050.53;;;16.10;100.00
32873;BME280;19224;52.462;16.898;2023-04-24T06:17:41;99047.50;;;16.19;100.00
32873;BME280;19224;52.462;16.898;2023-04-24T06:20:12;99047.42;;;16.30;100.00
32873;BME280;19224;52.462;16.898;2023-04-24T06:22:42;99041.87;;;16.31;100.00
32873;BME280;19224;52.462;16.898;2023-04-24T06:25:12;99044.66;;;16.20;100.00
32873;BME280;19224;52.462;16.898;2023-04-24T06:27:43;99046.46;;;16.25;100.00
32873;BME280;19224;52.462;16.898;2023-04-24T06:30:13;99045.78;;;16.18;100.00
32873;BME280;19224;52.462;16.898;2023-04-24T06:32:43;99042.55;;;16.24;100.00
32873;BME280;19224;52.462;16.898;2023-04-24T06:35:14;99047.82;;;16.25;100.00
32873;BME280;19224;52.462;16.898;2023-04-24T06:37:45;99046.06;;;16.30;100.00
32873;BME280;19224;52.462;16.898;2023-04-24T06:40:16;99047.14;;;16.33;100.00
32873;BME280;19224;52.462;16.898;2023-04-24T06:42:47;99041.42;;;16.21;100.00
32873;BME280;19224;52.462;16.898;2023-04-24T06:45:18;99037.62;;;16.18;100.00
32873;BME280;19224;52.462;16.898;2023-04-24T06:47:49;99040.06;;;16.21;100.00
32873;BME280;19224;52.462;16.898;2023-04-24T06:50:19;99044.47;;;16.27;100.00
32873;BME280;19224;52.462;16.898;2023-04-24T06:52:49;99041.11;;;16.35;100.00
32873;BME280;19224;52.462;16.898;2023-04-24T06:55:20;99045.94;;;16.37;100.00
32873;BME280;19224;52.462;16.898;2023-04-24T06:57:50;99045.58;;;16.30;100.00
32873;BME280;19224;52.462;16.898;2023-04-24T07:00:20;99040.17;;;16.45;100.00
32873;BME280;19224;52.462;16.898;2023-04-24T07:02:52;99043.37;;;16.50;100.00
32873;BME280;19224;52.462;16.898;2023-04-24T07:05:23;99039.86;;;16.69;100.00
32873;BME280;19224;52.462;16.898;2023-04-24T07:07:53;99049.12;;;16.81;100.00
32873;BME280;19224;52.462;16.898;2023-04-24T07:10:24;99052.08;;;16.84;100.00
32873;BME280;19224;52.462;16.898;2023-04-24T07:12:57;99044.62;;;17.00;100.00
32873;BME280;19224;52.462;16.898;2023-04-24T07:15:27;99036.61;;;17.08;100.00
32873;BME280;19224;52.462;16.898;2023-04-24T07:17:58;99045.94;;;17.15;100.00
32873;BME280;19224;52.462;16.898;2023-04-24T07:20:28;99040.37;;;17.26;100.00
32873;BME280;19224;52.462;16.898;2023-04-24T07:22:58;99046.73;;;17.36;100.00
32873;BME280;19224;52.462;16.898;2023-04-24T07:25:28;99046.08;;;17.38;100.00
32873;BME280;19224;52.462;16.898;2023-04-24T07:27:59;99044.43;;;17.41;100.00
32873;BME280;19224;52.462;16.898;2023-04-24T07:30:29;99050.26;;;17.27;100.00
32873;BME280;19224;52.462;16.898;2023-04-24T07:32:59;99051.81;;;17.20;100.00
32873;BME280;19224;52.462;16.898;2023-04-24T07:35:29;99050.78;;;17.02;100.00
32873;BME280;19224;52.462;16.898;2023-04-24T07:38:00;99049.53;;;16.92;100.00
32873;BME280;19224;52.462;16.898;2023-04-24T07:40:30;99046.81;;;16.92;100.00
32873;BME280;19224;52.462;16.898;2023-04-24T07:43:00;99046.56;;;16.80;100.00
32873;BME280;19224;52.462;16.898;2023-04-24T07:45:30;99046.81;;;16.77;100.00
32873;BME280;19224;52.462;16.898;2023-04-24T07:48:02;99048.56;;;16.78;100.00
32873;BME280;19224;52.462;16.898;2023-04-24T07:50:33;99040.17;;;16.75;100.00
32873;BME280;19224;52.462;16.898;2023-04-24T07:53:04;99054.79;;;16.84;100.00
32873;BME280;19224;52.462;16.898;2023-04-24T07:55:34;99043.34;;;17.04;100.00
32873;BME280;19224;52.462;16.898;2023-04-24T07:58:05;99040.04;;;17.10;100.00
32873;BME280;19224;52.462;16.898;2023-04-24T08:00:35;99045.30;;;17.17;100.00
32873;BME280;19224;52.462;16.898;2023-04-24T08:03:05;99043.52;;;17.46;100.00
32873;BME280;19224;52.462;16.898;2023-04-24T08:05:35;99040.70;;;17.42;100.00
32873;BME280;19224;52.462;16.898;2023-04-24T08:08:05;99043.90;;;17.66;100.00
32873;BME280;19224;52.462;16.898;2023-04-24T08:10:35;99040.73;;;17.61;100.00
32873;BME280;19224;52.462;16.898;2023-04-24T08:13:05;99049.39;;;17.51;100.00
32873;BME280;19224;52.462;16.898;2023-04-24T08:15:35;99052.84;;;17.63;100.00
32873;BME280;19224;52.462;16.898;2023-04-24T08:18:06;99056.41;;;17.63;100.00
32873;BME280;19224;52.462;16.898;2023-04-24T08:20:36;99057.22;;;17.69;100.00
32873;BME280;19224;52.462;16.898;2023-04-24T08:23:07;99051.53;;;17.76;100.00
32873;BME280;19224;52.462;16.898;2023-04-24T08:25:37;99057.22;;;17.69;100.00
32873;BME280;19224;52.462;16.898;2023-04-24T08:28:09;99061.01;;;17.72;100.00
32873;BME280;19224;52.462;16.898;2023-04-24T08:30:41;99059.49;;;17.64;100.00
32873;BME280;19224;52.462;16.898;2023-04-24T08:33:11;99067.53;;;17.56;100.00
32873;BME280;19224;52.462;16.898;2023-04-24T08:35:41;99059.79;;;17.52;100.00
32873;BME280;19224;52.462;16.898;2023-04-24T08:38:11;99068.67;;;17.54;100.00
32873;BME280;19224;52.462;16.898;2023-04-24T08:40:42;99057.63;;;17.46;100.00
32873;BME280;19224;52.462;16.898;2023-04-24T08:43:14;99052.20;;;17.55;100.00
32873;BME280;19224;52.462;16.898;2023-04-24T08:45:46;99050.55;;;17.58;100.00
32873;BME280;19224;52.462;16.898;2023-04-24T08:48:17;99047.39;;;17.72;100.00
32873;BME280;19224;52.462;16.898;2023-04-24T08:50:52;99052.19;;;17.93;100.00
32873;BME280;19224;52.462;16.898;2023-04-24T08:53:27;99055.06;;;18.01;100.00
32873;BME280;19224;52.462;16.898;2023-04-24T08:55:57;99058.16;;;18.67;100.00
32873;BME280;19224;52.462;16.898;2023-04-24T08:58:29;99055.44;;;18.67;100.00
32873;BME280;19224;52.462;16.898;2023-04-24T09:01:00;99055.35;;;18.63;100.00
32873;BME280;19224;52.462;16.898;2023-04-24T09:03:31;99054.42;;;18.68;100.00
32873;BME280;19224;52.462;16.898;2023-04-24T09:06:03;99054.47;;;18.72;99.35
32873;BME280;19224;52.462;16.898;2023-04-24T09:08:34;99052.66;;;18.77;99.55
32873;BME280;19224;52.462;16.898;2023-04-24T09:11:06;99057.31;;;18.80;99.09
32873;BME280;19224;52.462;16.898;2023-04-24T09:13:38;99060.61;;;18.84;98.82
32873;BME280;19224;52.462;16.898;2023-04-24T09:16:08;99064.22;;;18.88;99.11
32873;BME280;19224;52.462;16.898;2023-04-24T09:18:39;99056.22;;;19.00;98.68
32873;BME280;19224;52.462;16.898;2023-04-24T09:21:10;99062.53;;;19.14;97.20
32873;BME280;19224;52.462;16.898;2023-04-24T09:23:42;99061.83;;;19.12;96.07
32873;BME280;19224;52.462;16.898;2023-04-24T09:26:12;99056.32;;;18.95;96.03
32873;BME280;19224;52.462;16.898;2023-04-24T09:28:44;99051.64;;;19.05;96.24
32873;BME280;19224;52.462;16.898;2023-04-24T09:31:18;99057.07;;;19.14;96.05
32873;BME280;19224;52.462;16.898;2023-04-24T09:34:00;99060.98;;;19.16;94.92
32873;BME280;19224;52.462;16.898;2023-04-24T09:36:36;99061.37;;;19.03;94.88
32873;BME280;19224;52.462;16.898;2023-04-24T09:39:10;99061.75;;;19.08;95.24
32873;BME280;19224;52.462;16.898;2023-04-24T09:41:50;99057.07;;;19.14;94.52
32873;BME280;19224;52.462;16.898;2023-04-24T09:44:24;99055.18;;;19.15;94.18
32873;BME280;19224;52.462;16.898;2023-04-24T09:46:57;99058.26;;;19.25;94.95
32873;BME280;19224;52.462;16.898;2023-04-24T09:49:30;99049.09;;;19.30;93.61
32873;BME280;19224;52.462;16.898;2023-04-24T09:52:12;99044.67;;;19.64;93.53
32873;BME280;19224;52.462;16.898;2023-04-24T09:54:42;99051.36;;;19.83;91.76
32873;BME280;19224;52.462;16.898;2023-04-24T09:57:15;99053.07;;;19.84;89.67
32873;BME280;19224;52.462;16.898;2023-04-24T09:59:46;99053.52;;;19.75;90.51
32873;BME280;19224;52.462;16.898;2023-04-24T10:02:21;99055.43;;;19.79;90.44
32873;BME280;19224;52.462;16.898;2023-04-24T10:04:56;99045.14;;;19.59;89.62
32873;BME280;19224;52.462;16.898;2023-04-24T10:07:28;99055.59;;;19.47;89.26
32873;BME280;19224;52.462;16.898;2023-04-24T10:09:59;99057.56;;;19.23;90.83
32873;BME280;19224;52.462;16.898;2023-04-24T10:12:30;99060.11;;;19.38;91.51
32873;BME280;19224;52.462;16.898;2023-04-24T10:15:02;99061.09;;;19.33;91.96
32873;BME280;19224;52.462;16.898;2023-04-24T10:17:35;99055.91;;;19.30;92.78
32873;BME280;19224;52.462;16.898;2023-04-24T10:20:07;99060.21;;;19.46;92.55
32873;BME280;19224;52.462;16.898;2023-04-24T10:22:38;99057.92;;;19.55;92.05
32873;BME280;19224;52.462;16.898;2023-04-24T10:25:09;99053.10;;;19.70;92.03
32873;BME280;19224;52.462;16.898;2023-04-24T10:27:40;99054.32;;;19.54;91.47
32873;BME280;19224;52.462;16.898;2023-04-24T10:30:13;99055.72;;;19.58;92.23
32873;BME280;19224;52.462;16.898;2023-04-24T10:32:43;99051.56;;;19.68;92.00
32873;BME280;19224;52.462;16.898;2023-04-24T10:35:15;99055.58;;;19.77;91.79
32873;BME280;19224;52.462;16.898;2023-04-24T10:37:57;99051.58;;;20.03;91.51
32873;BME280;19224;52.462;16.898;2023-04-24T10:40:34;99055.56;;;19.95;89.21
32873;BME280;19224;52.462;16.898;2023-04-24T10:43:08;99057.63;;;19.62;90.29
32873;BME280;19224;52.462;16.898;2023-04-24T10:45:40;99055.02;;;19.56;92.92
32873;BME280;19224;52.462;16.898;2023-04-24T10:48:10;99052.75;;;19.52;92.50
32873;BME280;19224;52.462;16.898;2023-04-24T10:50:53;99065.50;;;19.48;91.59
32873;BME280;19224;52.462;16.898;2023-04-24T10:53:29;99062.97;;;19.50;93.93
32873;BME280;19224;52.462;16.898;2023-04-24T10:56:08;99070.05;;;19.43;92.61
32873;BME280;19224;52.462;16.898;2023-04-24T10:58:47;99062.30;;;19.52;92.48
32873;BME280;19224;52.462;16.898;2023-04-24T11:01:31;99069.33;;;19.68;92.36
32873;BME280;19224;52.462;16.898;2023-04-24T11:04:03;99068.56;;;19.62;93.19
32873;BME280;19224;52.462;16.898;2023-04-24T11:06:36;99065.86;;;19.66;92.34
32873;BME280;19224;52.462;16.898;2023-04-24T11:09:09;99066.75;;;19.53;92.74
32873;BME280;19224;52.462;16.898;2023-04-24T11:11:46;99064.44;;;19.58;90.29
32873;BME280;19224;52.462;16.898;2023-04-24T11:14:17;99062.52;;;19.72;88.65
32873;BME280;19224;52.462;16.898;2023-04-24T11:16:53;99065.38;;;19.84;86.16
32873;BME280;19224;52.462;16.898;2023-04-24T11:19:27;99061.63;;;19.67;82.57
32873;BME280;19224;52.462;16.898;2023-04-24T11:22:12;99058.03;;;20.02;83.30
32873;BME280;19224;52.462;16.898;2023-04-24T11:27:22;99071.75;;;20.06;82.35
32873;BME280;19224;52.462;16.898;2023-04-24T11:30:00;99073.82;;;20.08;81.55
32873;BME280;19224;52.462;16.898;2023-04-24T11:32:35;99071.85;;;19.83;83.55
32873;BME280;19224;52.462;16.898;2023-04-24T11:35:19;99076.85;;;19.70;85.21
32873;BME280;19224;52.462;16.898;2023-04-24T11:37:53;99084.59;;;19.74;84.78
32873;BME280;19224;52.462;16.898;2023-04-24T11:40:24;99083.05;;;19.76;85.00
32873;BME280;19224;52.462;16.898;2023-04-24T11:42:55;99081.16;;;19.90;85.01
32873;BME280;19224;52.462;16.898;2023-04-24T11:45:30;99083.83;;;19.86;81.96
32873;BME280;19224;52.462;16.898;2023-04-24T11:48:02;99082.81;;;19.87;79.61
32873;BME280;19224;52.462;16.898;2023-04-24T11:50:32;99074.67;;;19.91;79.07
32873;BME280;19224;52.462;16.898;2023-04-24T11:53:05;99076.20;;;20.07;78.88
32873;BME280;19224;52.462;16.898;2023-04-24T11:55:35;99082.45;;;20.17;77.41
32873;BME280;19224;52.462;16.898;2023-04-24T11:58:07;99084.73;;;20.04;76.34
32873;BME280;19224;52.462;16.898;2023-04-24T12:00:37;99080.71;;;20.12;77.37
32873;BME280;19224;52.462;16.898;2023-04-24T12:03:09;99076.18;;;20.24;76.63
32873;BME280;19224;52.462;16.898;2023-04-24T12:05:41;99076.48;;;20.43;76.35
32873;BME280;19224;52.462;16.898;2023-04-24T12:08:26;99077.55;;;20.24;76.16
32873;BME280;19224;52.462;16.898;2023-04-24T12:10:44;99076.88;;;20.26;76.33
32873;BME280;19224;52.462;16.898;2023-04-24T12:13:16;99070.71;;;20.24;75.81
32873;BME280;19224;52.462;16.898;2023-04-24T12:15:46;99062.80;;;20.39;75.61
32873;BME280;19224;52.462;16.898;2023-04-24T12:18:17;99064.39;;;20.49;75.69
32873;BME280;19224;52.462;16.898;2023-04-24T12:20:47;99059.20;;;20.64;74.74
32873;BME280;19224;52.462;16.898;2023-04-24T12:24:05;99056.94;;;20.59;73.24
32873;BME280;19224;52.462;16.898;2023-04-24T12:25:52;99057.47;;;20.59;73.71
32873;BME280;19224;52.462;16.898;2023-04-24T12:28:22;99057.33;;;20.64;73.98
32873;BME280;19224;52.462;16.898;2023-04-24T12:30:52;99057.27;;;20.56;75.31
32873;BME280;19224;52.462;16.898;2023-04-24T12:33:23;99053.63;;;20.48;76.05
32873;BME280;19224;52.462;16.898;2023-04-24T12:35:54;99062.45;;;20.38;76.64
32873;BME280;19224;52.462;16.898;2023-04-24T12:38:27;99063.98;;;20.15;76.65
32873;BME280;19224;52.462;16.898;2023-04-24T12:41:13;99057.69;;;20.01;78.63
32873;BME280;19224;52.462;16.898;2023-04-24T12:43:54;99061.38;;;19.61;79.50
32873;BME280;19224;52.462;16.898;2023-04-24T12:46:24;99059.73;;;19.33;81.74
32873;BME280;19224;52.462;16.898;2023-04-24T12:48:54;99055.53;;;19.16;81.50
32873;BME280;19224;52.462;16.898;2023-04-24T12:51:25;99052.27;;;19.12;82.50
32873;BME280;19224;52.462;16.898;2023-04-24T12:53:55;99040.89;;;18.90;82.52
32873;BME280;19224;52.462;16.898;2023-04-24T12:56:25;99038.30;;;18.88;83.29
32873;BME280;19224;52.462;16.898;2023-04-24T12:58:55;99041.02;;;18.88;84.30
32873;BME280;19224;52.462;16.898;2023-04-24T13:01:26;99029.78;;;18.74;84.70
32873;BME280;19224;52.462;16.898;2023-04-24T13:03:56;99031.16;;;18.64;85.15
32873;BME280;19224;52.462;16.898;2023-04-24T13:06:26;99024.69;;;18.65;86.18